This is the latest recevied weather packets stored in our database for station/object DH8TOM-3. If no packets are shown the sender has not sent any weather packets the latest 10 day(s).
| Time | Temp. | Humidity | Pressure | Rain* | Wind** | Luminosity | Snow |
|---|---|---|---|---|---|---|---|
| 1777371805 | 17.78° C | 46% | 1022.9 hPa | 0 mm | - | - | - |
| 1777371506 | 17.78° C | 46% | 1022.9 hPa | 0 mm | - | - | - |
| 1777371204 | 17.78° C | 47% | 1022.9 hPa | 0 mm | - | - | - |
| 1777370903 | 17.78° C | 47% | 1022.9 hPa | 0 mm | - | - | - |
| 1777370602 | 17.78° C | 47% | 1023 hPa | 0 mm | - | - | - |
| 1777370300 | 17.78° C | 47% | 1023 hPa | 0 mm | - | - | - |
| 1777369097 | 17.78° C | 46% | 1023 hPa | 0 mm | - | - | - |
| 1777368796 | 17.78° C | 46% | 1023 hPa | 0 mm | - | - | - |
| 1777368494 | 17.78° C | 46% | 1023 hPa | 0 mm | - | - | - |
| 1777367290 | 17.78° C | 46% | 1022.9 hPa | 0 mm | - | - | - |
| 1777365485 | 17.22° C | 47% | 1022.7 hPa | 0 mm | - | - | - |
| 1777365184 | 17.22° C | 47% | 1022.7 hPa | 0 mm | - | - | - |
| 1777364882 | 17.22° C | 48% | 1022.6 hPa | 0 mm | - | - | - |
| 1777364581 | 17.22° C | 48% | 1022.6 hPa | 0 mm | - | - | - |
| 1777364281 | 16.67° C | 46% | 1022.6 hPa | 0 mm | - | - | - |
| 1777363980 | 16.67° C | 46% | 1022.6 hPa | 0 mm | - | - | - |
| 1777363679 | 16.67° C | 46% | 1022.5 hPa | 0 mm | - | - | - |
| 1777363378 | 16.67° C | 46% | 1022.5 hPa | 0 mm | - | - | - |
| 1777363077 | 16.11° C | 48% | 1022.4 hPa | 0 mm | - | - | - |
| 1777362474 | 15° C | 51% | 1022.4 hPa | 0 mm | - | - | - |
| 1777362174 | 15° C | 51% | 1022.4 hPa | 0 mm | - | - | - |
| 1777361873 | 14.44° C | 50% | 1022.4 hPa | 0 mm | - | - | - |
| 1777361572 | 14.44° C | 50% | 1022.4 hPa | 0 mm | - | - | - |
| 1777361271 | 12.78° C | 53% | 1022.3 hPa | 0 mm | - | - | - |
| 1777360970 | 12.78° C | 53% | 1022.3 hPa | 0 mm | - | - | - |
* Rain latest hour (hover to see other rain measurements)
** Current wind speed in m/s (hover to see current wind gust speed)